Time;durP1;ratioP1;P1;durP2;ratioP2;P2;SDS_P1;SDS_P2;PMS_P1;PMS_P2;Temp;Humidity;BMP_temperature;BMP_pressure;BME280_temperature;BME280_humidity;BME280_pressure;Samples;Min_cycle;Max_cycle;Signal;HPM_P1;HPM_P2
2022/01/28 00:01:02;;;;;;;70.37;14.30;;;5.30;99.90;;;;;;5015953;28;20569;-68
2022/01/28 00:03:28;;;;;;;106.77;17.90;;;;;;;;;;5013193;28;20636;-68
2022/01/28 00:05:54;;;;;;;73.20;14.13;;;;;;;;;;5018191;28;20180;-68
2022/01/28 00:08:20;;;;;;;95.03;16.53;;;;;;;;;;5019465;28;20534;-68
2022/01/28 00:10:46;;;;;;;121.70;19.60;;;;;;;;;;5011321;28;20205;-68
2022/01/28 00:13:22;;;;;;;80.73;14.63;;;;;;;;;;5018027;28;20247;-69
2022/01/28 00:18:50;;;;;;;73.23;13.13;;;;;;;;;;5014388;28;20246;-69
2022/01/28 00:38:05;;;;;;;85.97;16.60;;;;;;;;;;5017150;28;20215;-69
2022/01/28 00:40:32;;;;;;;134.13;22.93;;;;;;;;;;5013886;28;20201;-69
2022/01/28 00:42:58;;;;;;;86.27;17.13;;;;;;;;;;5015444;28;20192;-69
2022/01/28 00:45:24;;;;;;;107.30;19.97;;;;;;;;;;5015805;28;20200;-69
2022/01/28 00:47:50;;;;;;;107.60;19.77;;;;;;;;;;5014835;28;20273;-69
2022/01/28 00:50:16;;;;;;;122.30;21.70;;;;;;;;;;5012666;28;20209;-69
2022/01/28 00:52:42;;;;;;;112.73;20.70;;;;;;;;;;5017877;28;20212;-69
2022/01/28 00:55:08;;;;;;;126.63;21.83;;;;;;;;;;5013466;28;20208;-69
2022/01/28 00:57:34;;;;;;;57.33;13.27;;;;;;;;;;5011927;28;20611;-69
2022/01/28 01:00:00;;;;;;;92.53;18.03;;;;;;;;;;5019804;28;20277;-69
2022/01/28 01:02:26;;;;;;;97.57;19.50;;;;;;;;;;5015901;28;20230;-70
2022/01/28 01:04:52;;;;;;;131.43;23.80;;;;;;;;;;5011099;28;22862;-70
2022/01/28 01:07:18;;;;;;;77.10;14.73;;;;;;;;;;5018150;28;20572;-68
2022/01/28 01:09:45;;;;;;;120.60;21.17;;;;;;;;;;5015276;28;20189;-68
2022/01/28 01:12:12;;;;;;;100.50;18.47;;;;;;;;;;5006284;28;20211;-68
2022/01/28 01:14:39;;;;;;;107.80;20.00;;;;;;;;;;5016916;28;20192;-68
2022/01/28 01:17:22;;;;;;;110.20;20.13;;;;;;;;;;5017458;28;20726;-68
2022/01/28 01:19:52;;;;;;;81.47;17.63;;;;;;;;;;5015810;28;20283;-69
2022/01/28 01:22:19;;;;;;;59.90;13.27;;;;;;;;;;5011793;28;20706;-68
2022/01/28 01:24:49;;;;;;;92.10;17.30;;;;;;;;;;5020534;28;20499;-68
2022/01/28 01:27:17;;;;;;;92.33;18.10;;;;;;;;;;5012776;28;20246;-68
2022/01/28 01:29:45;;;;;;;97.77;19.73;;;;;;;;;;5017698;28;20188;-68
2022/01/28 01:32:15;;;;;;;68.30;14.50;;;;;;;;;;5012894;28;20314;-68
2022/01/28 01:34:41;;;;;;;97.77;19.47;;;;;;;;;;5012870;28;20185;-68
2022/01/28 01:37:08;;;;;;;111.40;20.37;;;;;;;;;;5017509;28;20188;-68
2022/01/28 01:39:36;;;;;;;81.60;17.40;;;;;;;;;;5017822;28;20312;-68
2022/01/28 01:42:12;;;;;;;114.67;22.60;;;;;;;;;;5012235;28;20451;-68
2022/01/28 01:45:16;;;;;;;97.87;19.20;;;;;;;;;;5019194;28;20184;-68
2022/01/28 01:53:07;;;;;;;85.33;17.30;;;;;;;;;;5015129;28;20272;-69
2022/01/28 01:55:33;;;;;;;131.47;24.77;;;;;;;;;;5012117;28;20193;-68
2022/01/28 01:57:59;;;;;;;82.07;17.90;;;;;;;;;;5022117;28;20250;-68
2022/01/28 02:00:25;;;;;;;98.63;19.83;;;;;;;;;;5018290;28;20212;-69
2022/01/28 02:02:51;;;;;;;103.10;20.90;;;;;;;;;;5017808;28;20181;-68
2022/01/28 02:05:17;;;;;;;82.70;17.83;;;;;;;;;;5013541;28;20254;-69
2022/01/28 02:07:45;;;;;;;101.00;20.67;;;;;;;;;;5015475;28;20196;-68
2022/01/28 02:10:11;;;;;;;130.23;25.33;;;;;;;;;;5013178;28;20216;-68
2022/01/28 02:12:50;;;;;;;96.47;20.67;;;;;;;;;;5009272;28;20207;-68
2022/01/28 02:15:16;;;;;;;131.80;25.50;;;;;;;;;;5015281;28;20239;-70
2022/01/28 02:17:42;;;;;;;131.30;25.67;;;;;;;;;;5015489;28;20242;-70
2022/01/28 02:20:09;;;;;;;115.57;23.27;;;;;;;;;;5009554;28;20217;-69
2022/01/28 02:22:35;;;;;;;96.30;20.57;;;;;;;;;;5011702;28;20231;-70
2022/01/28 02:25:01;;;;;;;109.07;21.43;;;;;;;;;;5014533;28;20264;-70
2022/01/28 02:27:27;;;;;;;90.10;18.83;;;;;;;;;;5014859;28;20215;-69
2022/01/28 02:29:55;;;;;;;84.07;18.80;;;;;;;;;;5016881;28;20188;-69
2022/01/28 02:32:22;;;;;;;98.50;21.63;;;;;;;;;;5016058;28;20210;-69
2022/01/28 02:34:48;;;;;;;70.40;15.93;;;;;;;;;;5014026;28;20215;-69
2022/01/28 02:37:14;;;;;;;77.27;17.67;;;;;;;;;;5021749;28;20220;-69
2022/01/28 02:39:40;;;;;;;67.17;17.67;;;;;;;;;;5013018;28;20271;-69
2022/01/28 02:42:43;;;;;;;82.30;18.80;;;;;;;;;;5013239;28;20198;-69
2022/01/28 02:44:55;;;;;;;85.60;20.13;;;;;;;;;;5012886;28;20250;-69
2022/01/28 02:47:35;;;;;;;67.57;16.33;;;;;;;;;;5014771;28;20299;-70
2022/01/28 02:50:03;;;;;;;57.70;15.13;;;;;;;;;;5013570;28;20208;-69
2022/01/28 02:52:37;;;;;;;73.83;17.80;;;;;;;;;;5015017;28;20596;-70
2022/01/28 02:55:08;;;;;;;94.30;22.03;;;;;;;;;;5014372;28;20177;-70
2022/01/28 02:57:37;;;;;;;44.60;12.07;;;;;;;;;;5019161;28;20176;-69
2022/01/28 03:00:04;;;;;;;89.90;20.73;;;;;;;;;;5019038;28;20626;-69
2022/01/28 03:02:30;;;;;;;85.60;20.47;;;;;;;;;;5015181;28;20299;-70
2022/01/28 03:07:28;;;;;;;67.00;17.50;;;;;;;;;;5015964;28;20231;-69
2022/01/28 03:12:57;;;;;;;68.90;18.60;;;;;;;;;;5016351;28;20349;-69
2022/01/28 03:15:21;;;;;;;66.40;18.27;;;;;;;;;;5021084;28;20184;-69
2022/01/28 03:18:09;;;;;;;102.13;26.00;;;;;;;;;;5018067;28;20543;-69
2022/01/28 03:20:55;;;;;;;196.97;38.73;;;;;;;;;;5041258;22;20240;-68
2022/01/28 03:23:21;;;;;;;161.00;30.20;;;;;;;;;;5012293;28;20209;-68
2022/01/28 03:25:48;;;;;;;159.37;30.67;;;;;;;;;;5019445;28;20247;-68
2022/01/28 03:28:16;;;;;;;83.60;16.70;;;;;;;;;;5037889;28;20229;-68
2022/01/28 03:30:42;;;;;;;119.50;23.07;;;;;;;;;;5015886;28;20196;-68
2022/01/28 03:33:08;;;;;;;124.27;23.67;;;;;;;;;;5020852;28;20658;-68
2022/01/28 03:35:35;;;;;;;122.73;24.33;;;;;;;;;;5016289;28;20176;-67
2022/01/28 03:38:03;;;;;;;149.73;30.43;;;;;;;;;;5026044;28;20268;-68
2022/01/28 03:40:33;;;;;;;172.83;35.53;;;;;;;;;;5017705;28;20266;-68
2022/01/28 03:42:58;;;;;;;130.77;27.80;;;;;;;;;;5022348;28;20218;-68
2022/01/28 03:45:24;;;;;;;105.37;21.07;;;;;;;;;;5018336;28;20208;-68
2022/01/28 03:47:50;;;;;;;104.13;20.93;;;;;;;;;;5005699;28;20669;-68
2022/01/28 03:50:16;;;;;;;162.30;31.07;;;;;;;;;;5013915;28;20593;-68
2022/01/28 03:52:42;;;;;;;114.00;22.67;;;;;;;;;;5015270;28;20215;-68
2022/01/28 03:55:08;;;;;;;108.37;22.13;;;;;;;;;;5019026;28;20188;-68
2022/01/28 03:57:34;;;;;;;101.87;20.97;;;;;;;;;;5017893;28;20185;-68
2022/01/28 04:00:00;;;;;;;103.17;21.73;;;;;;;;;;5003151;28;20192;-68
2022/01/28 04:02:30;;;;;;;124.30;25.23;;;;;;;;;;5017537;28;20661;-68
2022/01/28 04:12:53;;;;;;;122.17;22.97;;;;;;;;;;5017891;28;20219;-68
2022/01/28 04:17:45;;;;;;;103.03;25.07;;;;;;;;;;5022195;28;20305;-67
2022/01/28 04:20:11;;;;;;;155.07;31.10;;;;;;;;;;5001743;28;20250;-68
2022/01/28 04:22:36;;;;;;;102.63;22.70;;;;;;;;;;5000546;28;20585;-67
2022/01/28 04:25:03;;;;;;;134.73;25.83;;;;;;;;;;5017318;28;20188;-68
2022/01/28 04:27:29;;;;;;;124.73;17.30;;;;;;;;;;5014800;28;20250;-68
2022/01/28 04:29:55;;;;;;;99.80;13.37;;;;;;;;;;5019032;28;20189;-67
2022/01/28 04:32:23;;;;;;;91.43;12.47;;;;;;;;;;5018887;28;20211;-67
2022/01/28 04:34:49;;;;;;;114.13;15.27;;;;;;;;;;5020122;28;21096;-67
2022/01/28 04:38:09;;;;;;;96.37;12.87;;;;;;;;;;5016964;28;20177;-68
2022/01/28 04:40:19;;;;;;;160.87;20.83;;;;;;;;;;5004609;28;20188;-68
2022/01/28 04:45:41;;;;;;;109.83;14.57;;;;;;;;;;5016289;28;20191;-67
2022/01/28 04:48:23;;;;;;;95.50;12.70;;;;;;;;;;5019012;28;20190;-68
2022/01/28 04:56:44;;;;;;;99.13;13.23;;;;;;;;;;5018670;28;20314;-68
2022/01/28 04:59:29;;;;;;;108.83;14.23;;;;;;;;;;5019179;28;20191;-68
2022/01/28 05:02:29;;;;;;;104.23;13.83;;;;;;;;;;4996777;28;20204;-68
2022/01/28 05:05:11;;;;;;;141.20;18.37;;;;;;;;;;5013476;28;20648;-68
2022/01/28 05:24:06;;;;;;;155.60;20.03;;;;;;;;;;5019740;28;20200;-67
2022/01/28 05:26:34;;;;;;;117.37;15.43;;;;;;;;;;5014677;28;20299;-67
2022/01/28 05:29:00;;;;;;;121.83;16.07;;;;;;;;;;5004103;28;20180;-67
2022/01/28 05:31:27;;;;;;;84.07;11.47;;;;;;;;;;5004599;28;20670;-67
2022/01/28 05:33:53;;;;;;;142.20;18.67;;;;;;;;;;4996203;28;20231;-68
2022/01/28 05:36:19;;;;;;;106.70;14.47;;;;;;;;;;4995110;28;20188;-68
2022/01/28 05:38:45;;;;;;;139.70;18.60;;;;;;;;;;5019807;28;20207;-68
2022/01/28 05:41:11;;;;;;;112.87;15.00;;;;;;;;;;5015981;28;20196;-68
2022/01/28 05:43:37;;;;;;;98.57;13.53;;;;;;;;;;5022187;28;20192;-68
2022/01/28 05:46:03;;;;;;;134.93;18.03;;;;;;;;;;4992727;28;20243;-68
2022/01/28 05:48:29;;;;;;;90.47;12.33;;;;;;;;;;5026274;28;20196;-68
2022/01/28 05:50:55;;;;;;;109.60;14.97;;;;;;;;;;5014883;28;20232;-68
2022/01/28 05:53:21;;;;;;;146.33;19.53;;;;;;;;;;5019047;28;20250;-68
2022/01/28 05:55:47;;;;;;;179.30;23.83;;;;;;;;;;5014002;28;21037;-68
2022/01/28 05:58:13;;;;;;;140.23;18.67;;;;;;;;;;5001861;28;20712;-68
2022/01/28 06:00:39;;;;;;;112.37;15.10;;;;;;;;;;5011420;28;20215;-68
2022/01/28 06:03:05;;;;;;;90.10;12.80;;;;;;;;;;5022672;28;20887;-68
2022/01/28 06:05:31;;;;;;;111.50;14.97;;;;;;;;;;5018670;28;20180;-68
2022/01/28 06:08:00;;;;;;;150.83;20.13;;;;;;;;;;5017026;28;20188;-67
2022/01/28 06:10:27;;;;;;;139.30;18.30;;;;;;;;;;5012257;28;20200;-68
2022/01/28 06:12:53;;;;;;;114.23;15.53;;;;;;;;;;4997810;28;20243;-67
2022/01/28 06:15:19;;;;;;;105.60;14.43;;;;;;;;;;5001898;28;20208;-68
2022/01/28 06:17:45;;;;;;;93.50;12.93;;;;;;;;;;5024022;28;20263;-67
2022/01/28 06:20:12;;;;;;;175.63;23.67;;;;;;;;;;4995770;28;20188;-67
2022/01/28 06:22:41;;;;;;;117.33;16.23;;;;;;;;;;4999241;28;20271;-67
2022/01/28 06:25:08;;;;;;;109.43;14.80;;;;;;;;;;5002022;28;20190;-68
2022/01/28 06:27:34;;;;;;;90.50;12.67;;;;;;;;;;5003052;28;20231;-67
2022/01/28 06:30:00;;;;;;;133.53;17.97;;;;;;;;;;5020151;28;20581;-68
2022/01/28 06:32:26;;;;;;;102.53;14.03;;;;;;;;;;5012981;28;20259;-67
2022/01/28 06:34:52;;;;;;;87.67;12.30;;;;;;;;;;5020035;28;20545;-68
2022/01/28 06:37:18;;;;;;;173.13;22.93;;;;;;;;;;5011689;28;20189;-66
2022/01/28 06:39:44;;;;;;;94.83;13.07;;;;;;;;;;5014504;28;20185;-66
2022/01/28 06:42:10;;;;;;;113.57;15.53;;;;;;;;;;5015348;28;20208;-66
2022/01/28 06:44:36;;;;;;;104.03;14.57;;;;;;;;;;5001194;28;20211;-66
2022/01/28 06:47:02;;;;;;;118.37;16.00;;;;;;;;;;5006944;28;20180;-66
2022/01/28 06:49:28;;;;;;;119.70;16.27;;;;;;;;;;5022848;28;20245;-67
2022/01/28 06:51:53;;;;;;;94.00;12.90;;;;;;;;;;5001335;28;20203;-66
2022/01/28 06:54:19;;;;;;;163.03;22.80;;;;;;;;;;5012045;28;20198;-66
2022/01/28 06:56:45;;;;;;;141.60;19.30;;;;;;;;;;5005716;28;20850;-65
2022/01/28 06:59:11;;;;;;;111.63;15.47;;;;;;;;;;5022222;28;20184;-66
2022/01/28 07:01:37;;;;;;;121.63;16.50;;;;;;;;;;5011911;28;20200;-66
2022/01/28 07:04:04;;;;;;;169.13;22.73;;;;;;;;;;5017828;28;20273;-66
2022/01/28 07:06:30;;;;;;;107.23;14.73;;;;;;;;;;5001791;28;20184;-66
2022/01/28 07:08:55;;;;;;;138.37;18.63;;;;;;;;;;4992813;28;20198;-66
2022/01/28 07:11:21;;;;;;;95.63;13.33;;;;;;;;;;5017714;28;20295;-66
2022/01/28 07:13:47;;;;;;;153.07;20.50;;;;;;;;;;5018649;28;20219;-66
2022/01/28 07:16:13;;;;;;;109.50;15.17;;;;;;;;;;4999432;28;20180;-66
2022/01/28 07:18:39;;;;;;;86.00;11.93;;;;;;;;;;5020846;28;20187;-66
2022/01/28 07:21:05;;;;;;;124.13;16.93;;;;;;;;;;5014270;28;20230;-66
2022/01/28 07:23:31;;;;;;;181.33;24.33;;;;;;;;;;5015667;28;20196;-66
2022/01/28 07:25:57;;;;;;;172.37;23.33;;;;;;;;;;5004918;28;20188;-68
2022/01/28 07:28:25;;;;;;;151.03;20.47;;;;;;;;;;4997159;28;20235;-67
2022/01/28 07:30:51;;;;;;;83.93;11.77;;;;;;;;;;5014567;28;20690;-69
2022/01/28 07:33:17;;;;;;;180.17;24.13;;;;;;;;;;5015849;28;20279;-70
2022/01/28 07:35:43;;;;;;;260.87;35.47;;;;;;;;;;5009348;28;20192;-68
2022/01/28 07:38:10;;;;;;;127.90;17.67;;;;;;;;;;4986690;28;20189;-67
2022/01/28 07:40:36;;;;;;;168.10;23.33;;;;;;;;;;5017022;28;20218;-70
2022/01/28 07:43:02;;;;;;;156.40;21.50;;;;;;;;;;5016569;28;20184;-69
2022/01/28 07:45:28;;;;;;;91.03;12.80;;;;;;;;;;4996796;28;20185;-70
2022/01/28 07:47:54;;;;;;;109.67;15.13;;;;;;;;;;5018498;28;20191;-70
2022/01/28 07:50:20;;;;;;;134.00;18.07;;;;;;;;;;5004845;28;20658;-69
2022/01/28 07:52:46;;;;;;;133.03;18.23;;;;;;;;;;5015012;28;20208;-70
2022/01/28 07:55:13;;;;;;;156.47;21.63;;;;;;;;;;5016992;28;20227;-70
2022/01/28 07:57:39;;;;;;;90.30;12.77;;;;;;;;;;5023649;28;20179;-68
2022/01/28 08:00:06;;;;;;;127.20;17.83;;;;;;;;;;5017802;28;20185;-66
2022/01/28 08:02:32;;;;;;;95.77;13.40;;;;;;;;;;4995227;28;21007;-69
2022/01/28 08:04:57;;;;;;;164.27;24.23;;;;;;;;;;5009233;28;20204;-71
2022/01/28 08:07:24;;;;;;;89.37;12.80;;;;;;;;;;5015825;28;20215;-72
2022/01/28 08:09:49;;;;;;;114.57;15.80;;;;;;;;;;5026130;28;20227;-72
2022/01/28 08:12:15;;;;;;;164.33;22.80;;;;;;;;;;5005462;28;20251;-71
2022/01/28 08:14:42;;;;;;;88.83;12.60;;;;;;;;;;5010168;28;20615;-71
2022/01/28 08:17:08;;;;;;;106.03;14.97;;;;;;;;;;5022033;28;20184;-73
2022/01/28 08:19:34;;;;;;;125.57;17.53;;;;;;;;;;5013518;28;20243;-68
2022/01/28 08:22:00;;;;;;;160.07;22.50;;;;;;;;;;5007970;28;20216;-70
2022/01/28 08:24:26;;;;;;;90.33;12.63;;;;;;;;;;5018658;28;20214;-71
2022/01/28 08:26:52;;;;;;;124.33;17.20;;;;;;;;;;5016100;28;20187;-69
2022/01/28 08:29:18;;;;;;;83.20;11.70;;;;;;;;;;5022668;28;20212;-71
2022/01/28 08:31:44;;;;;;;105.17;14.33;;;;;;;;;;5020728;28;20243;-71
2022/01/28 08:34:10;;;;;;;138.30;18.67;;;;;;;;;;5022607;28;20727;-73
2022/01/28 08:36:36;;;;;;;136.63;18.53;;;;;;;;;;5016213;28;20188;-70
2022/01/28 08:39:04;;;;;;;130.80;18.20;;;;;;;;;;5021789;28;20184;-70
2022/01/28 08:41:31;;;;;;;184.43;25.37;;;;;;;;;;5011678;28;20223;-71
2022/01/28 08:43:57;;;;;;;184.17;24.83;;;;;;;;;;5007994;28;20180;-75
2022/01/28 08:46:23;;;;;;;189.93;25.50;;;;;;;;;;5009884;28;20250;-68
2022/01/28 08:48:49;;;;;;;119.80;16.93;;;;;;;;;;4989166;28;20189;-71
2022/01/28 08:51:15;;;;;;;221.80;30.07;;;;;;;;;;5005419;28;20219;-70
2022/01/28 08:53:42;;;;;;;166.83;22.87;;;;;;;;;;5009152;28;21114;-69
2022/01/28 08:56:08;;;;;;;104.13;14.37;;;;;;;;;;4999287;28;20177;-70
2022/01/28 08:58:34;;;;;;;112.60;15.77;;;;;;;;;;5020688;28;20181;-70
2022/01/28 09:01:00;;;;;;;143.77;19.10;;;;;;;;;;5020996;28;20208;-70
2022/01/28 09:03:26;;;;;;;150.43;19.97;;;;;;;;;;5017929;28;20252;-69
2022/01/28 09:05:52;;;;;;;122.13;17.00;;;;;;;;;;5019241;28;20554;-68
2022/01/28 09:08:18;;;;;;;132.17;18.20;;;;;;;;;;5021064;28;20209;-69
2022/01/28 09:10:57;;;;;;;144.40;19.63;;;;;;;;;;5015518;28;20209;-71
2022/01/28 09:13:26;;;;;;;150.20;20.27;;;;;;;;;;5004346;28;20216;-69
2022/01/28 09:15:54;;;;;;;122.83;16.90;;;;;;;;;;5018208;28;20263;-69
2022/01/28 09:18:21;;;;;;;106.73;14.67;;;;;;;;;;5015449;28;20177;-69
2022/01/28 09:29:27;;;;;;;91.47;16.50;;;;;;;;;;5074593;27;20610;-48
2022/01/28 09:31:53;;;;;;;63.77;13.33;;;;;;;;;;5082349;28;20253;-48
2022/01/28 09:34:19;;;;;;;76.10;15.17;;;;;;;;;;5078045;28;20296;-48
2022/01/28 09:36:45;;;;;;;111.93;19.90;;;;;;;;;;5064901;28;20291;-48
2022/01/28 09:39:12;;;;;;;124.30;20.63;;;;;;;;;;5074681;28;20507;-48
2022/01/28 09:41:38;;;;;;;125.23;21.17;;;;;;;;;;5070341;28;20181;-48
2022/01/28 09:44:08;;;;;;;158.30;27.50;;;;;;;;;;5068990;28;21022;-48
2022/01/28 09:46:34;;;;;;;129.50;21.33;;;;;;;;;;5072829;28;20179;-48
2022/01/28 09:49:01;;;;;;;77.40;13.67;;;;;;;;;;5071203;28;20590;-48
2022/01/28 09:51:27;;;;;;;127.33;20.00;;;;;;;;;;5077326;28;20194;-48
2022/01/28 09:53:53;;;;;;;54.23;11.20;;;;;;;;;;5075540;28;20213;-48
2022/01/28 09:56:19;;;;;;;85.03;15.10;;;;;;;;;;5071602;28;20789;-48
2022/01/28 09:58:45;;;;;;;105.33;17.23;;;;;;;;;;5073349;28;20610;-48
2022/01/28 10:01:11;;;;;;;106.43;18.03;;;;;;;;;;5066768;28;20769;-48
2022/01/28 10:03:37;;;;;;;82.57;15.57;;;;;;;;;;5081889;28;20296;-48
2022/01/28 10:06:03;;;;;;;65.87;13.57;;;;;;;;;;5086156;28;20184;-47
2022/01/28 10:08:29;;;;;;;140.27;22.43;;;;;;;;;;5071105;28;20196;-48
2022/01/28 10:10:59;;;;;;;263.13;37.13;;;;;;;;;;5068539;28;20191;-48
2022/01/28 10:13:49;;;;;;;111.63;18.57;;;;;;;;;;5068811;28;20210;-48
2022/01/28 10:16:12;;;;;;;104.70;17.07;;;;;;;;;;5072347;28;20198;-48
2022/01/28 10:18:49;;;;;;;90.50;15.40;;;;;;;;;;5073897;28;20214;-48
2022/01/28 10:21:26;;;;;;;93.97;16.47;;;;;;;;;;5088604;28;20666;-48
2022/01/28 10:23:58;;;;;;;141.17;21.83;;;;;;;;;;5077496;28;20443;-48
2022/01/28 10:26:44;;;;;;;85.60;15.07;;;;;;;;;;5084956;28;20688;-48
2022/01/28 10:29:12;;;;;;;149.87;22.63;;;;;;;;;;5081553;28;20592;-50
2022/01/28 10:31:43;;;;;;;74.50;14.10;;;;;;;;;;5091479;28;20538;-48
2022/01/28 10:34:10;;;;;;;76.80;14.07;;;;;;;;;;5084133;28;20297;-48
2022/01/28 10:36:36;;;;;;;63.17;12.37;;;;;;;;;;5081200;28;20256;-48
2022/01/28 10:39:02;;;;;;;36.83;9.43;;;;;;;;;;5083152;28;20223;-48
2022/01/28 10:41:28;;;;;;;102.50;16.93;;;;;;;;;;5069266;28;20244;-48
2022/01/28 10:43:55;;;;;;;104.47;17.03;;;;;;;;;;5077765;28;20759;-48
2022/01/28 10:46:26;;;;;;;76.97;13.63;;;;;;;;;;5074282;28;20182;-48
2022/01/28 10:48:52;;;;;;;70.20;13.90;;;;;;;;;;5075031;28;20202;-48
2022/01/28 10:51:19;;;;;;;90.53;16.33;;;;;;;;;;5067627;28;20205;-47
2022/01/28 10:54:02;;;;;;;72.90;12.90;;;;;;;;;;5068011;28;20210;-48
2022/01/28 10:56:28;;;;;;;58.23;11.33;;;;;;;;;;5064611;28;20210;-48
2022/01/28 10:58:54;;;;;;;109.47;18.10;;;;;;;;;;5069563;28;20202;-48
2022/01/28 11:01:20;;;;;;;184.90;27.90;;;;;;;;;;5060025;28;20330;-48
2022/01/28 11:03:46;;;;;;;90.10;15.33;;;;;;;;;;5053679;28;20203;-48
2022/01/28 11:06:12;;;;;;;108.63;16.87;;;;;;;;;;5050974;28;21208;-49
2022/01/28 11:08:38;;;;;;;131.03;22.43;;;;;;;;;;5056878;28;20717;-48
2022/01/28 11:11:04;;;;;;;153.23;23.67;;;;;;;;;;5062398;28;20182;-48
2022/01/28 11:13:30;;;;;;;120.63;18.80;;;;;;;;;;5071096;28;20207;-48
2022/01/28 11:15:57;;;;;;;186.80;28.73;;;;;;;;;;5061750;28;20574;-48
2022/01/28 11:18:23;;;;;;;124.13;19.23;;;;;;;;;;5064420;28;20217;-48
2022/01/28 11:20:51;;;;;;;95.03;15.77;;;;;;;;;;5066309;28;20197;-48
2022/01/28 11:23:30;;;;;;;195.37;29.63;;;;;;;;;;5055948;28;20954;-49
2022/01/28 11:25:56;;;;;;;192.30;29.00;;;;;;;;;;5059415;28;20248;-48
2022/01/28 11:28:37;;;;;;;163.27;25.27;;;;;;;;;;5067216;28;20198;-48
2022/01/28 11:31:03;;;;;;;128.67;19.33;;;;;;;;;;5058980;28;20265;-48
2022/01/28 11:33:42;;;;;;;145.90;22.93;;;;;;;;;;5063552;28;20291;-48
2022/01/28 11:36:08;;;;;;;152.30;22.93;;;;;;;;;;5046145;28;20190;-48
2022/01/28 11:38:34;;;;;;;126.40;20.57;;;;;;;;;;5055815;28;20226;-48
2022/01/28 11:41:02;;;;;;;116.87;18.83;;;;;;;;;;5063650;28;20187;-49
2022/01/28 11:43:31;;;;;;;141.50;22.73;;;;;;;;;;5071280;28;20754;-49
2022/01/28 11:46:11;;;;;;;76.10;14.03;;;;;;;;;;5056603;28;20190;-48
2022/01/28 11:48:52;;;;;;;248.07;35.07;;;;;;;;;;5065047;28;20190;-48
2022/01/28 11:51:20;;;;;;;123.93;19.93;;;;;;;;;;5059876;28;20553;-48
2022/01/28 11:54:03;;;;;;;138.20;22.17;;;;;;;;;;5052839;28;20542;-49
2022/01/28 11:56:29;;;;;;;133.93;21.50;;;;;;;;;;5056137;28;20746;-49
2022/01/28 11:59:03;;;;;;;99.13;16.77;;;;;;;;;;5066424;28;20202;-49
2022/01/28 12:01:38;;;;;;;266.73;40.17;;;;;;;;;;5051381;28;20197;-48
2022/01/28 12:04:23;;;;;;;158.40;25.13;;;;;;;;;;5044301;28;20975;-49
2022/01/28 12:07:27;;;;;;;133.30;21.03;;;;;;;;;;5055550;28;20187;-49
2022/01/28 12:09:54;;;;;;;57.00;10.90;;;;;;;;;;5005998;28;20269;-49
2022/01/28 12:12:24;;;;;;;98.00;16.53;;;;;;;;;;4991694;28;20252;-49
2022/01/28 12:14:50;;;;;;;76.47;14.03;;;;;;;;;;5027647;28;20297;-48
2022/01/28 12:17:45;;;;;;;131.63;21.43;;;;;;;;;;5064373;28;20191;-48
2022/01/28 12:20:15;;;;;;;108.37;17.97;;;;;;;;;;5047042;28;20587;-49
2022/01/28 12:23:00;;;;;;;207.60;31.03;;;;;;;;;;5043963;28;20186;-48
2022/01/28 12:25:41;;;;;;;133.53;20.97;;;;;;;;;;5043166;28;20174;-48
2022/01/28 12:28:20;;;;;;;122.57;20.53;;;;;;;;;;5062908;28;20710;-48
2022/01/28 12:30:46;;;;;;;190.43;28.57;;;;;;;;;;5053585;28;20206;-48
2022/01/28 12:33:12;;;;;;;179.50;27.40;;;;;;;;;;5053100;28;20352;-48
2022/01/28 12:35:39;;;;;;;184.17;26.27;;;;;;;;;;5055011;28;20588;-48
2022/01/28 12:38:06;;;;;;;201.27;29.67;;;;;;;;;;5058181;28;23514;-48
2022/01/28 12:40:36;;;;;;;219.30;35.17;;;;;;;;;;5053137;28;21497;-48
2022/01/28 12:43:06;;;;;;;145.70;22.93;;;;;;;;;;5046899;28;24676;-49
2022/01/28 12:45:32;;;;;;;109.93;18.43;;;;;;;;;;5056074;28;20188;-48
2022/01/28 12:47:59;;;;;;;108.97;17.90;;;;;;;;;;5055087;28;20193;-48
2022/01/28 12:50:25;;;;;;;194.93;30.27;;;;;;;;;;5050709;28;20193;-48
2022/01/28 12:52:51;;;;;;;101.20;17.40;;;;;;;;;;5059127;28;20217;-48
2022/01/28 12:55:17;;;;;;;232.13;34.00;;;;;;;;;;5056381;28;20194;-48
2022/01/28 12:57:45;;;;;;;264.53;40.27;;;;;;;;;;5035019;28;20895;-48
2022/01/28 13:00:11;;;;;;;102.60;18.43;;;;;;;;;;5054950;28;20642;-48
2022/01/28 13:02:37;;;;;;;94.80;16.70;;;;;;;;;;5058724;28;21060;-48
2022/01/28 13:10:23;;;;;;;218.43;33.33;;;;;;;;;;5044402;28;20200;-48
2022/01/28 13:12:49;;;;;;;168.03;25.70;;;;;;;;;;5049123;28;20190;-49
2022/01/28 13:15:16;;;;;;;138.77;23.30;;;;;;;;;;5045994;28;20250;-48
2022/01/28 13:18:11;;;;;;;95.40;17.57;;;;;;;;;;5060213;28;20267;-49
2022/01/28 13:20:42;;;;;;;114.27;19.33;;;;;;;;;;5051702;28;20199;-48
2022/01/28 13:23:09;;;;;;;122.20;20.87;;;;;;;;;;5059072;28;20314;-48
2022/01/28 13:25:35;;;;;;;208.67;32.70;;;;;;;;;;5056551;28;20189;-48
2022/01/28 13:28:04;;;;;;;153.60;26.17;;;;;;;;;;5061378;28;20304;-49
2022/01/28 13:30:34;;;;;;;171.10;27.90;;;;;;;;;;5048583;28;20186;-48
2022/01/28 13:33:04;;;;;;;156.20;26.60;;;;;;;;;;5062268;28;20700;-49
2022/01/28 13:35:32;;;;;;;140.50;24.57;;;;;;;;;;5056474;28;20638;-48
2022/01/28 13:38:02;;;;;;;129.07;23.23;;;;;;;;;;5058261;28;20381;-49
2022/01/28 13:40:28;;;;;;;242.87;38.20;;;;;;;;;;5055415;28;21034;-48
2022/01/28 13:43:02;;;;;;;145.70;24.43;;;;;;;;;;5059198;28;20198;-48
2022/01/28 13:45:32;;;;;;;128.33;22.23;;;;;;;;;;5056921;28;20663;-48
2022/01/28 13:47:59;;;;;;;141.93;24.53;;;;;;;;;;5052124;28;20190;-48
2022/01/28 13:50:34;;;;;;;117.40;21.40;;;;;;;;;;5060653;28;20774;-48
2022/01/28 13:53:19;;;;;;;154.47;26.13;;;;;;;;;;5057329;28;20226;-49
2022/01/28 13:55:46;;;;;;;126.20;22.13;;;;;;;;;;5054688;28;20648;-48
2022/01/28 13:58:12;;;;;;;153.93;25.00;;;;;;;;;;5062903;28;20744;-49
2022/01/28 14:00:45;;;;;;;136.80;23.17;;;;;;;;;;5054823;28;20630;-48
2022/01/28 14:03:26;;;;;;;233.20;36.23;;;;;;;;;;5068347;28;20210;-48
2022/01/28 14:05:53;;;;;;;258.23;39.30;;;;;;;;;;5037747;28;20708;-48
2022/01/28 14:08:38;;;;;;;124.43;20.67;;;;;;;;;;5049089;28;20183;-48
2022/01/28 14:11:18;;;;;;;208.40;32.97;;;;;;;;;;5043751;28;20986;-49
2022/01/28 14:13:44;;;;;;;132.43;23.37;;;;;;;;;;5050845;28;20298;-48
2022/01/28 14:16:15;;;;;;;165.20;27.73;;;;;;;;;;5060017;28;20228;-49
2022/01/28 14:18:41;;;;;;;208.93;34.07;;;;;;;;;;5054789;28;20228;-48
2022/01/28 14:21:07;;;;;;;103.30;18.70;;;;;;;;;;5065366;28;20930;-49
2022/01/28 14:23:45;;;;;;;166.10;26.07;;;;;;;;;;5062103;28;20198;-48
2022/01/28 14:26:11;;;;;;;213.30;32.13;;;;;;;;;;5045817;28;20182;-49
2022/01/28 14:29:09;;;;;;;194.07;29.90;;;;;;;;;;5050054;28;20225;-49
2022/01/28 14:31:24;;;;;;;139.27;23.17;;;;;;;;;;5062173;28;20202;-48
2022/01/28 14:33:50;;;;;;;283.80;43.80;;;;;;;;;;5028662;28;20369;-48
2022/01/28 14:36:16;;;;;;;279.43;44.50;;;;;;;;;;5028631;28;20385;-48
2022/01/28 14:38:46;;;;;;;305.23;45.73;;;;;;;;;;5018205;28;20210;-48
2022/01/28 14:41:12;;;;;;;397.10;61.83;;;;;;;;;;5019276;28;20663;-48
2022/01/28 14:43:38;;;;;;;261.60;41.43;;;;;;;;;;5020570;28;20215;-48
2022/01/28 14:46:04;;;;;;;297.90;47.23;;;;;;;;;;5031364;28;20889;-48
2022/01/28 14:48:30;;;;;;;240.33;39.10;;;;;;;;;;5027232;28;20202;-48
2022/01/28 14:50:56;;;;;;;137.30;22.73;;;;;;;;;;5046761;28;21007;-49
2022/01/28 14:53:22;;;;;;;185.70;29.27;;;;;;;;;;5036630;28;20214;-48
2022/01/28 14:55:48;;;;;;;228.90;34.53;;;;;;;;;;5030812;28;20205;-49
2022/01/28 14:58:14;;;;;;;177.33;28.40;;;;;;;;;;5049512;28;20210;-48
2022/01/28 15:00:40;;;;;;;134.67;22.40;;;;;;;;;;5066920;28;20202;-49
2022/01/28 15:03:09;;;;;;;160.97;25.87;;;;;;;;;;5073178;28;20287;-48
2022/01/28 15:05:36;;;;;;;204.53;30.60;;;;;;;;;;5051030;28;20679;-48
2022/01/28 15:08:07;;;;;;;166.17;26.43;;;;;;;;;;5059757;28;20178;-48
2022/01/28 15:10:33;;;;;;;187.57;29.40;;;;;;;;;;5063998;28;20198;-49
2022/01/28 15:12:59;;;;;;;169.77;26.47;;;;;;;;;;5058808;28;20313;-48
2022/01/28 15:15:25;;;;;;;167.37;26.87;;;;;;;;;;5060677;28;20262;-49
2022/01/28 15:17:51;;;;;;;112.57;18.37;;;;;;;;;;5060606;28;20278;-48
2022/01/28 15:20:17;;;;;;;162.07;25.53;;;;;;;;;;5063957;28;20183;-48
2022/01/28 15:22:43;;;;;;;176.27;21.77;;;;;;;;;;5095695;22;20237;-72
2022/01/28 15:25:09;;;;;;;113.50;14.10;;;;;;;;;;5094879;27;20192;-72
2022/01/28 15:27:35;;;;;;;84.17;10.87;;;;;;;;;;5089815;27;20185;-74
2022/01/28 15:30:24;;;;;;;105.97;12.97;;;;;;;;;;5104088;27;20588;-71
2022/01/28 15:35:57;;;;;;;90.53;11.30;;;;;;;;;;5080673;28;20205;-73
2022/01/28 15:38:23;;;;;;;145.33;17.37;;;;;;;;;;5060485;28;20254;-73
2022/01/28 15:40:49;;;;;;;125.17;15.10;;;;;;;;;;5072016;28;20540;-72